createdAt,value
2017-11-08T00:00:54.529Z,1014.4
2017-11-08T00:01:56.903Z,1014.3
2017-11-08T00:02:59.391Z,1014.3
2017-11-08T00:04:01.790Z,1014.3
2017-11-08T00:05:04.169Z,1014.4
2017-11-08T00:06:06.652Z,1014.4
2017-11-08T00:07:09.048Z,1014.4
2017-11-08T00:08:11.612Z,1014.3
2017-11-08T00:09:13.969Z,1014.4
2017-11-08T00:10:17.052Z,1014.4
2017-11-08T00:11:19.607Z,1014.3
2017-11-08T00:12:22.338Z,1014.3
2017-11-08T00:13:24.880Z,1014.3
2017-11-08T00:14:27.233Z,1014.3
2017-11-08T00:15:29.628Z,1014.3
2017-11-08T00:16:32.177Z,1014.3
2017-11-08T00:17:34.551Z,1014.3
2017-11-08T00:18:37.026Z,1014.3
2017-11-08T00:19:39.396Z,1014.3
2017-11-08T00:20:41.766Z,1014.3
2017-11-08T00:21:44.397Z,1014.2
2017-11-08T00:22:47.115Z,1014.2
2017-11-08T00:23:49.595Z,1014.2
2017-11-08T00:24:51.968Z,1014.2
2017-11-08T00:25:54.562Z,1014.2
2017-11-08T00:26:56.910Z,1014.1
2017-11-08T00:27:59.289Z,1014.1
2017-11-08T00:29:02.168Z,1014.1
2017-11-08T00:30:04.541Z,1014.1
2017-11-08T00:31:06.909Z,1014.1
2017-11-08T00:32:09.284Z,1014
2017-11-08T00:33:11.994Z,1014.1
2017-11-08T00:34:14.812Z,1014
2017-11-08T00:35:17.194Z,1014.1
2017-11-08T00:36:19.826Z,1014
2017-11-08T00:37:22.210Z,1014
2017-11-08T00:38:24.576Z,1014
2017-11-08T00:39:26.945Z,1014
2017-11-08T00:40:29.329Z,1014
2017-11-08T00:41:31.788Z,1014
2017-11-08T00:42:34.160Z,1014
2017-11-08T00:43:36.599Z,1014
2017-11-08T00:44:39.023Z,1014.1
2017-11-08T00:45:41.448Z,1014
2017-11-08T00:46:43.856Z,1014
2017-11-08T00:47:46.338Z,1014
2017-11-08T00:48:48.813Z,1014.1
2017-11-08T00:49:51.192Z,1014.1
2017-11-08T00:50:53.565Z,1014.1
2017-11-08T00:51:55.942Z,1014.1
2017-11-08T00:52:58.659Z,1014
2017-11-08T00:54:01.032Z,1014
2017-11-08T00:55:03.415Z,1014.1
2017-11-08T00:56:05.800Z,1014
2017-11-08T00:57:08.209Z,1014
2017-11-08T00:58:10.865Z,1014
2017-11-08T00:59:13.571Z,1014
2017-11-08T01:00:16.167Z,1014
2017-11-08T01:01:18.664Z,1014
2017-11-08T01:02:21.151Z,1014
2017-11-08T01:03:24.221Z,1014
2017-11-08T01:04:26.593Z,1014
2017-11-08T01:05:28.960Z,1014
2017-11-08T01:06:31.348Z,1014
2017-11-08T01:07:33.717Z,1014
2017-11-08T01:08:36.086Z,1014
2017-11-08T01:09:38.458Z,1014
2017-11-08T01:10:40.837Z,1013.9
2017-11-08T01:11:43.204Z,1014
2017-11-08T01:12:45.588Z,1014
2017-11-08T01:13:47.945Z,1014
2017-11-08T01:14:50.321Z,1014.1
2017-11-08T01:15:52.687Z,1014
2017-11-08T01:16:55.063Z,1014
2017-11-08T01:17:57.436Z,1014
2017-11-08T01:18:59.810Z,1014
2017-11-08T01:20:02.185Z,1014
2017-11-08T01:21:04.568Z,1014
2017-11-08T01:22:06.945Z,1014
2017-11-08T01:23:09.320Z,1014
2017-11-08T01:24:11.699Z,1014
2017-11-08T01:25:14.064Z,1014
2017-11-08T01:26:16.783Z,1014.1
2017-11-08T01:27:19.150Z,1014.1
2017-11-08T01:28:21.529Z,1014
2017-11-08T01:29:23.896Z,1014.1
2017-11-08T01:30:26.627Z,1014
2017-11-08T01:31:28.993Z,1014.1
2017-11-08T01:32:31.374Z,1014
2017-11-08T01:33:33.747Z,1014
2017-11-08T01:34:36.113Z,1014
2017-11-08T01:35:38.495Z,1014.1
2017-11-08T01:36:40.856Z,1014
2017-11-08T01:37:43.231Z,1014
2017-11-08T01:38:45.619Z,1014
2017-11-08T01:39:47.985Z,1014
2017-11-08T01:40:50.357Z,1014
2017-11-08T01:41:53.081Z,1014
2017-11-08T01:42:55.450Z,1014
2017-11-08T01:43:57.819Z,1014
2017-11-08T01:45:00.199Z,1014
2017-11-08T01:46:02.564Z,1014
2017-11-08T01:47:04.958Z,1014
2017-11-08T01:48:07.331Z,1014
2017-11-08T01:49:09.704Z,1014
2017-11-08T01:50:12.781Z,1014.1
2017-11-08T01:51:15.151Z,1014.1
2017-11-08T01:52:17.525Z,1014.1
2017-11-08T01:53:19.901Z,1014.1
2017-11-08T01:54:22.275Z,1014
2017-11-08T01:55:24.652Z,1014
2017-11-08T01:56:27.007Z,1014
2017-11-08T01:57:29.382Z,1014
2017-11-08T01:58:31.760Z,1014
2017-11-08T01:59:34.128Z,1014
2017-11-08T02:00:36.869Z,1013.9
2017-11-08T02:01:39.237Z,1014
2017-11-08T02:02:41.603Z,1014
2017-11-08T02:03:43.981Z,1014
2017-11-08T02:04:46.357Z,1014
2017-11-08T02:05:48.718Z,1014
2017-11-08T02:06:51.096Z,1014
2017-11-08T02:07:53.477Z,1014
2017-11-08T02:08:55.853Z,1014
2017-11-08T02:09:58.229Z,1014
2017-11-08T02:11:00.589Z,1014
2017-11-08T02:12:02.957Z,1014
2017-11-08T02:13:05.335Z,1014
2017-11-08T02:14:08.076Z,1014
2017-11-08T02:15:10.441Z,1014
2017-11-08T02:16:13.177Z,1014
2017-11-08T02:17:15.561Z,1014
2017-11-08T02:18:17.936Z,1014
2017-11-08T02:19:20.310Z,1014.1
2017-11-08T02:20:23.015Z,1014
2017-11-08T02:21:25.382Z,1014
2017-11-08T02:22:27.770Z,1014
2017-11-08T02:23:30.144Z,1013.9
2017-11-08T02:24:32.517Z,1013.9
2017-11-08T02:25:34.888Z,1013.9
2017-11-08T02:26:37.266Z,1013.9
2017-11-08T02:27:39.636Z,1013.9
2017-11-08T02:28:42.009Z,1014
2017-11-08T02:29:44.374Z,1013.9
2017-11-08T02:30:46.744Z,1014
2017-11-08T02:31:49.126Z,1013.9
2017-11-08T02:32:51.498Z,1014
2017-11-08T02:33:54.222Z,1014
2017-11-08T02:34:56.957Z,1014
2017-11-08T02:35:59.323Z,1014
2017-11-08T02:37:01.704Z,1013.9
2017-11-08T02:38:04.072Z,1013.9
2017-11-08T02:39:06.441Z,1013.9
2017-11-08T02:40:08.814Z,1013.9
2017-11-08T02:41:11.194Z,1013.9
2017-11-08T02:42:13.569Z,1013.9
2017-11-08T02:43:15.952Z,1013.9
2017-11-08T02:44:18.345Z,1013.9
2017-11-08T02:45:21.048Z,1013.9
2017-11-08T02:46:23.422Z,1013.9
2017-11-08T02:47:25.790Z,1013.9
2017-11-08T02:48:28.163Z,1013.9
2017-11-08T02:49:30.540Z,1013.9
2017-11-08T02:50:32.910Z,1013.9
2017-11-08T02:51:35.279Z,1013.8
2017-11-08T02:52:37.996Z,1013.8
2017-11-08T02:53:40.735Z,1013.8
2017-11-08T02:54:43.464Z,1013.9
2017-11-08T02:55:46.177Z,1013.8
2017-11-08T02:56:48.557Z,1013.8
2017-11-08T02:57:51.280Z,1013.8
2017-11-08T02:58:53.658Z,1013.8
2017-11-08T02:59:56.028Z,1013.8
2017-11-08T03:00:59.109Z,1013.8
2017-11-08T03:02:01.854Z,1013.8
2017-11-08T03:03:04.590Z,1013.8
2017-11-08T03:04:06.969Z,1013.8
2017-11-08T03:05:09.342Z,1013.8
2017-11-08T03:06:11.716Z,1013.8
2017-11-08T03:07:14.086Z,1013.8
2017-11-08T03:08:16.471Z,1013.8
2017-11-08T03:09:18.846Z,1013.8
2017-11-08T03:10:21.211Z,1013.9
2017-11-08T03:11:23.598Z,1013.8
2017-11-08T03:12:25.972Z,1013.8
2017-11-08T03:13:28.349Z,1013.8
2017-11-08T03:14:30.716Z,1013.8
2017-11-08T03:15:33.089Z,1013.9
2017-11-08T03:16:35.452Z,1013.9
2017-11-08T03:17:37.838Z,1013.8
2017-11-08T03:18:40.208Z,1013.9
2017-11-08T03:19:42.575Z,1013.9
2017-11-08T03:20:44.954Z,1013.9
2017-11-08T03:21:47.324Z,1013.9
2017-11-08T03:22:49.700Z,1013.9
2017-11-08T03:23:52.078Z,1013.9
2017-11-08T03:24:54.448Z,1013.9
2017-11-08T03:25:56.834Z,1013.9
2017-11-08T03:26:59.196Z,1013.9
2017-11-08T03:28:01.587Z,1013.9
2017-11-08T03:29:03.958Z,1013.9
2017-11-08T03:30:06.330Z,1013.9
2017-11-08T03:31:08.701Z,1013.9
2017-11-08T03:32:11.075Z,1013.9
2017-11-08T03:33:13.457Z,1014
2017-11-08T03:34:15.828Z,1013.9
2017-11-08T03:35:18.198Z,1013.9
2017-11-08T03:36:20.585Z,1013.9
2017-11-08T03:37:23.312Z,1013.9
2017-11-08T03:38:26.025Z,1013.8
2017-11-08T03:39:28.751Z,1013.9
2017-11-08T03:40:31.131Z,1013.9
2017-11-08T03:41:33.498Z,1013.8
2017-11-08T03:42:35.871Z,1013.9
2017-11-08T03:43:38.232Z,1013.8
2017-11-08T03:44:40.600Z,1013.8
2017-11-08T03:45:42.994Z,1013.8
2017-11-08T03:46:45.367Z,1013.8
2017-11-08T03:47:47.740Z,1013.8
2017-11-08T03:48:50.114Z,1013.8
2017-11-08T03:49:52.492Z,1013.8
2017-11-08T03:50:55.196Z,1013.8
2017-11-08T03:51:57.570Z,1013.8
2017-11-08T03:52:59.956Z,1013.8
2017-11-08T03:54:02.702Z,1013.8
2017-11-08T03:55:05.082Z,1013.8
2017-11-08T03:56:07.457Z,1013.8
2017-11-08T03:57:09.827Z,1013.8
2017-11-08T03:58:12.214Z,1013.7
2017-11-08T03:59:14.936Z,1013.7
2017-11-08T04:00:17.302Z,1013.8
2017-11-08T04:01:20.024Z,1013.8
2017-11-08T04:02:22.402Z,1013.7
2017-11-08T04:03:24.777Z,1013.7
2017-11-08T04:04:27.145Z,1013.7
2017-11-08T04:05:29.522Z,1013.7
2017-11-08T04:06:31.892Z,1013.7
2017-11-08T04:07:34.269Z,1013.7
2017-11-08T04:08:36.635Z,1013.7
2017-11-08T04:09:38.998Z,1013.7
2017-11-08T04:10:41.373Z,1013.7
2017-11-08T04:11:43.746Z,1013.8
2017-11-08T04:12:46.817Z,1013.7
2017-11-08T04:13:49.186Z,1013.7
2017-11-08T04:14:51.557Z,1013.7
2017-11-08T04:15:53.933Z,1013.7
2017-11-08T04:16:56.680Z,1013.7
2017-11-08T04:17:59.051Z,1013.7
2017-11-08T04:19:01.424Z,1013.7
2017-11-08T04:20:03.796Z,1013.7
2017-11-08T04:21:06.522Z,1013.8
2017-11-08T04:22:08.974Z,1013.7
2017-11-08T04:23:11.333Z,1013.8
2017-11-08T04:24:13.729Z,1013.8
2017-11-08T04:25:16.104Z,1013.7
2017-11-08T04:26:18.470Z,1013.7
2017-11-08T04:27:20.845Z,1013.7
2017-11-08T04:28:23.602Z,1013.8
2017-11-08T04:29:25.982Z,1013.8
2017-11-08T04:30:28.355Z,1013.8
2017-11-08T04:31:30.722Z,1013.8
2017-11-08T04:32:33.091Z,1013.8
2017-11-08T04:33:35.475Z,1013.8
2017-11-08T04:34:37.854Z,1013.8
2017-11-08T04:35:40.569Z,1013.8
2017-11-08T04:36:43.298Z,1013.8
2017-11-08T04:37:45.674Z,1013.8
2017-11-08T04:38:48.053Z,1013.8
2017-11-08T04:39:50.422Z,1013.8
2017-11-08T04:40:52.794Z,1013.8
2017-11-08T04:41:55.174Z,1013.8
2017-11-08T04:42:57.542Z,1013.8
2017-11-08T04:43:59.914Z,1013.8
2017-11-08T04:45:02.307Z,1013.8
2017-11-08T04:46:04.675Z,1013.8
2017-11-08T04:47:07.056Z,1013.8
2017-11-08T04:48:09.443Z,1013.8
2017-11-08T04:49:11.830Z,1013.8
2017-11-08T04:50:14.182Z,1013.8
2017-11-08T04:51:16.925Z,1013.8
2017-11-08T04:52:19.650Z,1013.8
2017-11-08T04:53:22.019Z,1013.8
2017-11-08T04:54:24.398Z,1013.7
2017-11-08T04:55:27.127Z,1013.7
2017-11-08T04:56:29.496Z,1013.7
2017-11-08T04:57:31.885Z,1013.6
2017-11-08T04:58:34.961Z,1013.6
2017-11-08T04:59:37.342Z,1013.6
2017-11-08T05:00:40.063Z,1013.6
2017-11-08T05:01:42.436Z,1013.7
2017-11-08T05:02:44.804Z,1013.7
2017-11-08T05:03:47.178Z,1013.7
2017-11-08T05:04:49.547Z,1013.7
2017-11-08T05:05:52.266Z,1013.8
2017-11-08T05:06:54.636Z,1013.8
2017-11-08T05:07:57.015Z,1013.8
2017-11-08T05:08:59.377Z,1013.8
2017-11-08T05:10:01.759Z,1013.8
2017-11-08T05:11:04.142Z,1013.8
2017-11-08T05:12:06.517Z,1013.8
2017-11-08T05:13:09.279Z,1013.8
2017-11-08T05:14:11.663Z,1013.8
2017-11-08T05:15:14.039Z,1013.8
2017-11-08T05:16:16.423Z,1013.8
2017-11-08T05:17:18.801Z,1013.8
2017-11-08T05:18:21.163Z,1013.8
2017-11-08T05:19:23.543Z,1013.8
2017-11-08T05:20:26.278Z,1013.9
2017-11-08T05:21:28.661Z,1013.9
2017-11-08T05:22:31.034Z,1013.9
2017-11-08T05:23:33.397Z,1013.9
2017-11-08T05:24:35.774Z,1013.9
2017-11-08T05:25:38.148Z,1013.9
2017-11-08T05:26:40.528Z,1013.9
2017-11-08T05:27:42.898Z,1013.9
2017-11-08T05:28:45.267Z,1014
2017-11-08T05:29:47.635Z,1014
2017-11-08T05:30:50.031Z,1014
2017-11-08T05:31:52.396Z,1014
2017-11-08T05:32:54.763Z,1013.9
2017-11-08T05:33:57.514Z,1014
2017-11-08T05:34:59.894Z,1014
2017-11-08T05:36:02.271Z,1014
2017-11-08T05:37:04.639Z,1014
2017-11-08T05:38:07.013Z,1014
2017-11-08T05:39:09.388Z,1014
2017-11-08T05:40:11.768Z,1014
2017-11-08T05:41:14.135Z,1013.9
2017-11-08T05:42:16.519Z,1014
2017-11-08T05:43:18.888Z,1014
2017-11-08T05:44:21.606Z,1013.9
2017-11-08T05:45:23.987Z,1014
2017-11-08T05:46:26.354Z,1014
2017-11-08T05:47:28.728Z,1014
2017-11-08T05:48:31.090Z,1014
2017-11-08T05:49:33.470Z,1014
2017-11-08T05:50:35.844Z,1014
2017-11-08T05:51:38.221Z,1014.1
2017-11-08T05:52:40.593Z,1014.1
2017-11-08T05:53:42.973Z,1014.1
2017-11-08T05:54:45.337Z,1014.1
2017-11-08T05:55:47.726Z,1014.1
2017-11-08T05:56:50.084Z,1014.1
2017-11-08T05:57:52.459Z,1014.1
2017-11-08T05:58:54.831Z,1014.1
2017-11-08T05:59:57.206Z,1014.1
2017-11-08T06:00:59.583Z,1014.1
2017-11-08T06:02:01.962Z,1014.1
2017-11-08T06:03:04.335Z,1014.2
2017-11-08T06:04:06.707Z,1014.2
2017-11-08T06:05:09.434Z,1014.2
2017-11-08T06:06:12.150Z,1014.2
2017-11-08T06:07:14.588Z,1014.2
2017-11-08T06:08:16.965Z,1014.3
2017-11-08T06:09:19.338Z,1014.3
2017-11-08T06:10:21.729Z,1014.3
2017-11-08T06:11:24.091Z,1014.3
2017-11-08T06:12:26.816Z,1014.2
2017-11-08T06:13:29.197Z,1014.2
2017-11-08T06:14:31.568Z,1014.3
2017-11-08T06:15:33.942Z,1014.3
2017-11-08T06:16:36.351Z,1014.3
2017-11-08T06:17:38.722Z,1014.2
2017-11-08T06:18:41.093Z,1014.2
2017-11-08T06:19:43.471Z,1014.2
2017-11-08T06:20:45.847Z,1014.2
2017-11-08T06:21:48.230Z,1014.3
2017-11-08T06:22:50.601Z,1014.3
2017-11-08T06:23:52.978Z,1014.3
2017-11-08T06:24:55.353Z,1014.3
2017-11-08T06:25:58.084Z,1014.3
2017-11-08T06:27:00.464Z,1014.3
2017-11-08T06:28:03.195Z,1014.3
2017-11-08T06:29:05.558Z,1014.3
2017-11-08T06:30:07.951Z,1014.3
2017-11-08T06:31:10.327Z,1014.3
2017-11-08T06:32:12.700Z,1014.3
2017-11-08T06:33:15.078Z,1014.3
2017-11-08T06:34:17.454Z,1014.3
2017-11-08T06:35:19.828Z,1014.3
2017-11-08T06:36:22.217Z,1014.3
2017-11-08T06:37:24.587Z,1014.3
2017-11-08T06:38:27.654Z,1014.3
2017-11-08T06:39:30.047Z,1014.3
2017-11-08T06:40:32.405Z,1014.3
2017-11-08T06:41:34.784Z,1014.3
2017-11-08T06:42:37.158Z,1014.3
2017-11-08T06:43:39.530Z,1014.3
2017-11-08T06:44:42.264Z,1014.3
2017-11-08T06:45:44.643Z,1014.3
2017-11-08T06:46:47.013Z,1014.3
2017-11-08T06:47:49.402Z,1014.3
2017-11-08T06:48:51.778Z,1014.3
2017-11-08T06:49:54.150Z,1014.3
2017-11-08T06:50:56.525Z,1014.3
2017-11-08T06:51:58.898Z,1014.2
2017-11-08T06:53:01.270Z,1014.3
2017-11-08T06:54:03.637Z,1014.3
2017-11-08T06:55:06.024Z,1014.4
2017-11-08T06:56:08.399Z,1014.4
2017-11-08T06:57:10.782Z,1014.4
2017-11-08T06:58:13.153Z,1014.4
2017-11-08T06:59:15.875Z,1014.4
2017-11-08T07:00:18.246Z,1014.4
2017-11-08T07:01:20.628Z,1014.5
2017-11-08T07:02:23.344Z,1014.4
2017-11-08T07:03:25.724Z,1014.4
2017-11-08T07:04:28.480Z,1014.4
2017-11-08T07:05:30.844Z,1014.4
2017-11-08T07:06:33.568Z,1014.4
2017-11-08T07:07:35.947Z,1014.5
2017-11-08T07:08:38.666Z,1014.4
2017-11-08T07:09:41.045Z,1014.4
2017-11-08T07:10:43.417Z,1014.4
2017-11-08T07:11:46.135Z,1014.4
2017-11-08T07:12:48.513Z,1014.4
2017-11-08T07:13:50.897Z,1014.4
2017-11-08T07:14:53.613Z,1014.5
2017-11-08T07:15:55.989Z,1014.5
2017-11-08T07:16:58.371Z,1014.5
2017-11-08T07:18:00.753Z,1014.5
2017-11-08T07:19:03.139Z,1014.6
2017-11-08T07:20:05.503Z,1014.6
2017-11-08T07:21:07.879Z,1014.6
2017-11-08T07:22:10.627Z,1014.6
2017-11-08T07:23:12.996Z,1014.5
2017-11-08T07:24:15.726Z,1014.5
2017-11-08T07:25:18.098Z,1014.5
2017-11-08T07:26:20.476Z,1014.5
2017-11-08T07:27:22.860Z,1014.5
2017-11-08T07:28:25.609Z,1014.5
2017-11-08T07:29:27.976Z,1014.5
2017-11-08T07:30:30.350Z,1014.5
2017-11-08T07:31:32.724Z,1014.5
2017-11-08T07:32:35.098Z,1014.6
2017-11-08T07:33:37.478Z,1014.6
2017-11-08T07:34:39.850Z,1014.6
2017-11-08T07:35:42.220Z,1014.6
2017-11-08T07:36:44.600Z,1014.6
2017-11-08T07:37:46.966Z,1014.6
2017-11-08T07:38:49.340Z,1014.7
2017-11-08T07:39:51.710Z,1014.6
2017-11-08T07:40:54.086Z,1014.7
2017-11-08T07:41:56.464Z,1014.6
2017-11-08T07:42:58.864Z,1014.7
2017-11-08T07:44:01.593Z,1014.7
2017-11-08T07:45:03.983Z,1014.6
2017-11-08T07:46:06.363Z,1014.6
2017-11-08T07:47:08.749Z,1014.7
2017-11-08T07:48:11.114Z,1014.7
2017-11-08T07:49:13.494Z,1014.7
2017-11-08T07:50:15.865Z,1014.7
2017-11-08T07:51:18.252Z,1014.7
2017-11-08T07:52:20.648Z,1014.8
2017-11-08T07:53:23.079Z,1014.8
2017-11-08T07:54:25.523Z,1014.8
2017-11-08T07:55:27.966Z,1014.8
2017-11-08T07:56:30.400Z,1014.8
2017-11-08T07:57:32.890Z,1014.7
2017-11-08T07:58:35.372Z,1014.8
2017-11-08T07:59:37.809Z,1014.7
2017-11-08T08:00:40.281Z,1014.8
2017-11-08T08:01:42.759Z,1014.7
2017-11-08T08:02:45.186Z,1014.8
2017-11-08T08:03:47.636Z,1014.8
2017-11-08T08:04:50.093Z,1014.8
2017-11-08T08:05:52.921Z,1014.7
2017-11-08T08:06:55.382Z,1014.7
2017-11-08T08:07:57.831Z,1014.8
2017-11-08T08:09:00.596Z,1014.8
2017-11-08T08:10:03.051Z,1014.8
2017-11-08T08:11:05.575Z,1014.8
2017-11-08T08:12:07.999Z,1014.7
2017-11-08T08:13:10.471Z,1014.8
2017-11-08T08:14:12.916Z,1014.8
2017-11-08T08:15:16.437Z,1014.9
2017-11-08T08:16:18.922Z,1014.9
2017-11-08T08:17:21.365Z,1014.9
2017-11-08T08:18:23.816Z,1014.9
2017-11-08T08:19:26.359Z,1015
2017-11-08T08:20:28.788Z,1015
2017-11-08T08:21:31.293Z,1015
2017-11-08T08:22:33.750Z,1015
2017-11-08T08:23:36.189Z,1014.9
2017-11-08T08:24:38.745Z,1015
2017-11-08T08:25:41.169Z,1015
2017-11-08T08:26:43.742Z,1015
2017-11-08T08:27:46.533Z,1015
2017-11-08T08:28:49.394Z,1015
2017-11-08T08:29:52.005Z,1015
2017-11-08T08:30:54.437Z,1015
2017-11-08T08:31:56.878Z,1015
2017-11-08T08:32:59.670Z,1015
2017-11-08T08:34:02.105Z,1015
2017-11-08T08:35:04.535Z,1015
2017-11-08T08:36:06.990Z,1015
2017-11-08T08:37:09.421Z,1014.9
2017-11-08T08:38:11.849Z,1014.9
2017-11-08T08:39:14.289Z,1014.9
2017-11-08T08:40:17.088Z,1014.9
2017-11-08T08:41:19.536Z,1014.9
2017-11-08T08:42:22.328Z,1014.8
2017-11-08T08:43:24.756Z,1014.8
2017-11-08T08:44:27.191Z,1014.8
2017-11-08T08:45:29.664Z,1014.8
2017-11-08T08:46:32.210Z,1014.8
2017-11-08T08:47:34.643Z,1014.8
2017-11-08T08:48:37.077Z,1014.8
2017-11-08T08:49:39.509Z,1014.8
2017-11-08T08:50:41.942Z,1014.8
2017-11-08T08:51:44.367Z,1014.8
2017-11-08T08:52:47.161Z,1014.7
2017-11-08T08:53:49.594Z,1014.8
2017-11-08T08:54:52.028Z,1014.7
2017-11-08T08:55:54.462Z,1014.8
2017-11-08T08:56:56.901Z,1014.7
2017-11-08T08:57:59.346Z,1014.7
2017-11-08T08:59:01.789Z,1014.7
2017-11-08T09:00:04.216Z,1014.7
2017-11-08T09:01:06.667Z,1014.7
2017-11-08T09:02:09.442Z,1014.6
2017-11-08T09:03:11.881Z,1014.6
2017-11-08T09:04:14.319Z,1014.6
2017-11-08T09:05:16.755Z,1014.6
2017-11-08T09:06:19.190Z,1014.6
2017-11-08T09:07:21.620Z,1014.6
2017-11-08T09:08:24.053Z,1014.6
2017-11-08T09:09:26.528Z,1014.6
2017-11-08T09:10:28.960Z,1014.6
2017-11-08T09:11:31.392Z,1014.6
2017-11-08T09:12:33.826Z,1014.6
2017-11-08T09:13:36.259Z,1014.6
2017-11-08T09:14:38.702Z,1014.6
2017-11-08T09:15:41.148Z,1014.6
2017-11-08T09:16:43.557Z,1014.6
2017-11-08T09:17:45.991Z,1014.6
2017-11-08T09:18:48.425Z,1014.7
2017-11-08T09:19:50.842Z,1014.7
2017-11-08T09:20:53.288Z,1014.7
2017-11-08T09:21:55.719Z,1014.7
2017-11-08T09:22:58.153Z,1014.7
2017-11-08T09:24:00.593Z,1014.7
2017-11-08T09:25:03.032Z,1014.7
2017-11-08T09:26:05.463Z,1014.7
2017-11-08T09:27:07.903Z,1014.8
2017-11-08T09:28:10.708Z,1014.7
2017-11-08T09:29:13.191Z,1014.7
2017-11-08T09:30:15.626Z,1014.7
2017-11-08T09:31:18.067Z,1014.7
2017-11-08T09:32:20.505Z,1014.7
2017-11-08T09:33:22.947Z,1014.6
2017-11-08T09:34:25.396Z,1014.6
2017-11-08T09:35:27.825Z,1014.5
2017-11-08T09:36:30.264Z,1014.5
2017-11-08T09:37:32.696Z,1014.4
2017-11-08T09:38:35.128Z,1014.4
2017-11-08T09:39:37.559Z,1014.4
2017-11-08T09:40:39.991Z,1014.5
2017-11-08T09:41:42.420Z,1014.5
2017-11-08T09:42:44.880Z,1014.5
2017-11-08T09:43:47.300Z,1014.5
2017-11-08T09:44:50.113Z,1014.4
2017-11-08T09:45:52.569Z,1014.4
2017-11-08T09:46:54.976Z,1014.4
2017-11-08T09:47:57.419Z,1014.4
2017-11-08T09:48:59.861Z,1014.5
2017-11-08T09:50:02.301Z,1014.4
2017-11-08T09:51:04.745Z,1014.4
2017-11-08T09:52:07.180Z,1014.4
2017-11-08T09:53:09.614Z,1014.4
2017-11-08T09:54:12.432Z,1014.4
2017-11-08T09:55:14.869Z,1014.3
2017-11-08T09:56:17.294Z,1014.3
2017-11-08T09:57:20.463Z,1014.3
2017-11-08T09:58:22.886Z,1014.2
2017-11-08T09:59:25.336Z,1014.2
2017-11-08T10:00:27.760Z,1014.2
2017-11-08T10:01:30.198Z,1014.3
2017-11-08T10:02:32.636Z,1014.3
2017-11-08T10:03:35.068Z,1014.3
2017-11-08T10:04:37.518Z,1014.3
2017-11-08T10:05:40.307Z,1014.3
2017-11-08T10:06:42.823Z,1014.3
2017-11-08T10:07:45.209Z,1014.3
2017-11-08T10:08:47.626Z,1014.3
2017-11-08T10:09:50.150Z,1014.3
2017-11-08T10:10:52.503Z,1014.3
2017-11-08T10:11:55.321Z,1014.3
2017-11-08T10:12:57.810Z,1014.3
2017-11-08T10:14:00.657Z,1014.3
2017-11-08T10:15:03.464Z,1014.3
2017-11-08T10:16:06.056Z,1014.3
2017-11-08T10:17:09.327Z,1014.3
2017-11-08T10:18:11.766Z,1014.3
2017-11-08T10:19:14.200Z,1014.3
2017-11-08T10:20:16.642Z,1014.3
2017-11-08T10:21:19.084Z,1014.3
2017-11-08T10:22:21.512Z,1014.3
2017-11-08T10:23:23.963Z,1014.3
2017-11-08T10:24:26.391Z,1014.3
2017-11-08T10:25:28.844Z,1014.4
2017-11-08T10:26:31.281Z,1014.4
2017-11-08T10:27:33.718Z,1014.4
2017-11-08T10:28:36.156Z,1014.4
2017-11-08T10:29:38.953Z,1014.4
2017-11-08T10:30:41.386Z,1014.3
2017-11-08T10:31:44.180Z,1014.4
2017-11-08T10:32:46.614Z,1014.3
2017-11-08T10:33:49.061Z,1014.4
2017-11-08T10:34:51.492Z,1014.3
2017-11-08T10:35:53.932Z,1014.3
2017-11-08T10:36:56.369Z,1014.4
2017-11-08T10:37:59.169Z,1014.4
2017-11-08T10:39:01.612Z,1014.4
2017-11-08T10:40:04.042Z,1014.4
2017-11-08T10:41:06.466Z,1014.4
2017-11-08T10:42:12.274Z,1014.4
2017-11-08T10:43:15.908Z,1014.4
2017-11-08T10:44:18.347Z,1014.5
2017-11-08T10:45:20.781Z,1014.5
2017-11-08T10:46:23.620Z,1014.4
2017-11-08T10:47:26.052Z,1014.5
2017-11-08T10:48:28.836Z,1014.5
2017-11-08T10:49:31.639Z,1014.5
2017-11-08T10:50:34.066Z,1014.5
2017-11-08T10:51:36.499Z,1014.6
2017-11-08T10:52:38.931Z,1014.6
2017-11-08T10:53:41.361Z,1014.5
2017-11-08T10:54:43.806Z,1014.5
2017-11-08T10:55:46.239Z,1014.5
2017-11-08T10:56:48.659Z,1014.5
2017-11-08T10:57:51.098Z,1014.5
2017-11-08T10:58:53.541Z,1014.6
2017-11-08T10:59:55.966Z,1014.6
2017-11-08T11:00:58.403Z,1014.6
2017-11-08T11:02:00.831Z,1014.5
2017-11-08T11:03:03.269Z,1014.6
2017-11-08T11:04:05.706Z,1014.6
2017-11-08T11:05:08.138Z,1014.6
2017-11-08T11:06:10.561Z,1014.6
2017-11-08T11:07:13.349Z,1014.6
2017-11-08T11:08:15.780Z,1014.6
2017-11-08T11:09:18.220Z,1014.6
2017-11-08T11:10:20.634Z,1014.6
2017-11-08T11:11:23.423Z,1014.5
2017-11-08T11:12:25.857Z,1014.5
2017-11-08T11:13:28.656Z,1014.6
2017-11-08T11:14:31.093Z,1014.5
2017-11-08T11:15:33.517Z,1014.5
2017-11-08T11:16:36.316Z,1014.4
2017-11-08T11:17:38.747Z,1014.4
2017-11-08T11:18:41.181Z,1014.4
2017-11-08T11:19:43.615Z,1014.5
2017-11-08T11:20:46.047Z,1014.5
2017-11-08T11:21:48.472Z,1014.5
2017-11-08T11:22:50.908Z,1014.5
2017-11-08T11:23:53.339Z,1014.5
2017-11-08T11:24:55.772Z,1014.5
2017-11-08T11:25:58.203Z,1014.4
2017-11-08T11:27:00.633Z,1014.4
2017-11-08T11:28:03.419Z,1014.4
2017-11-08T11:29:05.857Z,1014.4
2017-11-08T11:30:08.655Z,1014.4
2017-11-08T11:31:11.096Z,1014.4
2017-11-08T11:32:13.529Z,1014.4
2017-11-08T11:33:15.961Z,1014.3
2017-11-08T11:34:18.392Z,1014.4
2017-11-08T11:35:20.825Z,1014.4
2017-11-08T11:36:23.246Z,1014.4
2017-11-08T11:37:25.696Z,1014.4
2017-11-08T11:38:28.121Z,1014.4
2017-11-08T11:39:30.547Z,1014.4
2017-11-08T11:40:32.984Z,1014.4
2017-11-08T11:41:35.412Z,1014.4
2017-11-08T11:42:37.844Z,1014.4
2017-11-08T11:43:40.281Z,1014.4
2017-11-08T11:44:42.708Z,1014.4
2017-11-08T11:45:45.163Z,1014.4
2017-11-08T11:46:47.567Z,1014.4
2017-11-08T11:47:49.989Z,1014.5
2017-11-08T11:48:52.436Z,1014.5
2017-11-08T11:49:54.870Z,1014.5
2017-11-08T11:50:57.304Z,1014.5
2017-11-08T11:51:59.739Z,1014.6
2017-11-08T11:53:02.171Z,1014.6
2017-11-08T11:54:04.982Z,1014.6
2017-11-08T11:55:07.405Z,1014.6
2017-11-08T11:56:09.826Z,1014.6
2017-11-08T11:57:12.252Z,1014.5
2017-11-08T11:58:14.691Z,1014.5
2017-11-08T11:59:17.114Z,1014.5
2017-11-08T12:00:19.910Z,1014.5
2017-11-08T12:01:22.333Z,1014.5
2017-11-08T12:02:24.754Z,1014.5
2017-11-08T12:03:27.557Z,1014.5
2017-11-08T12:04:30.337Z,1014.5
2017-11-08T12:05:32.765Z,1014.5
2017-11-08T12:06:35.551Z,1014.5
2017-11-08T12:07:38.000Z,1014.5
2017-11-08T12:08:40.433Z,1014.4
2017-11-08T12:09:42.874Z,1014.4
2017-11-08T12:10:45.287Z,1014.5
2017-11-08T12:11:47.737Z,1014.5
2017-11-08T12:12:50.173Z,1014.4
2017-11-08T12:13:52.608Z,1014.4
2017-11-08T12:14:55.052Z,1014.4
2017-11-08T12:15:57.473Z,1014.4
2017-11-08T12:16:59.895Z,1014.4
2017-11-08T12:18:02.340Z,1014.5
2017-11-08T12:19:04.786Z,1014.5
2017-11-08T12:20:07.228Z,1014.5
2017-11-08T12:21:09.657Z,1014.4
2017-11-08T12:22:12.116Z,1014.5
2017-11-08T12:23:14.541Z,1014.4
2017-11-08T12:24:16.971Z,1014.4
2017-11-08T12:25:19.753Z,1014.4
2017-11-08T12:26:22.179Z,1014.4
2017-11-08T12:27:24.614Z,1014.4
2017-11-08T12:28:27.052Z,1014.4
2017-11-08T12:29:29.480Z,1014.4
2017-11-08T12:30:31.931Z,1014.4
2017-11-08T12:31:34.737Z,1014.3
2017-11-08T12:32:37.165Z,1014.3
2017-11-08T12:33:39.597Z,1014.3
2017-11-08T12:34:42.393Z,1014.3
2017-11-08T12:35:45.174Z,1014.3
2017-11-08T12:36:47.623Z,1014.3
2017-11-08T12:37:50.056Z,1014.2
2017-11-08T12:38:52.489Z,1014.2
2017-11-08T12:39:54.932Z,1014.2
2017-11-08T12:40:57.359Z,1014.2
2017-11-08T12:41:59.817Z,1014.2
2017-11-08T12:43:02.226Z,1014.2
2017-11-08T12:44:04.656Z,1014.2
2017-11-08T12:45:07.141Z,1014.3
2017-11-08T12:46:09.568Z,1014.3
2017-11-08T12:47:12.018Z,1014.3
2017-11-08T12:48:14.447Z,1014.3
2017-11-08T12:49:16.881Z,1014.3
2017-11-08T12:50:19.319Z,1014.3
2017-11-08T12:51:22.100Z,1014.3
2017-11-08T12:52:24.526Z,1014.3
2017-11-08T12:53:26.966Z,1014.4
2017-11-08T12:54:29.389Z,1014.3
2017-11-08T12:55:31.827Z,1014.3
2017-11-08T12:56:34.613Z,1014.3
2017-11-08T12:57:37.059Z,1014.3
2017-11-08T12:58:39.853Z,1014.3
2017-11-08T12:59:42.294Z,1014.3
2017-11-08T13:00:44.717Z,1014.3
2017-11-08T13:01:47.156Z,1014.3
2017-11-08T13:02:49.582Z,1014.4
2017-11-08T13:03:52.013Z,1014.3
2017-11-08T13:04:54.447Z,1014.4
2017-11-08T13:05:56.884Z,1014.4
2017-11-08T13:06:59.321Z,1014.4
2017-11-08T13:08:01.749Z,1014.4